Time;durP1;ratioP1;P1;durP2;ratioP2;P2;SDS_P1;SDS_P2;PMS_P1;PMS_P2;Temp;Humidity;BMP_temperature;BMP_pressure;BME280_temperature;BME280_humidity;BME280_pressure;Samples;Min_cycle;Max_cycle;Signal;HPM_P1;HPM_P2
2023/01/28 00:01:20;;;;;;;9.00;5.10;;;;;;;;;;5063460;28;20208;-77
2023/01/28 00:03:48;;;;;;;6.60;4.27;;;;;;;;;;5060772;28;20182;-78
2023/01/28 00:06:13;;;;;;;8.70;4.80;;;;;;;;;;5067806;28;20174;-78
2023/01/28 00:08:39;;;;;;;5.57;4.17;;;;;;;;;;5067397;28;20183;-77
2023/01/28 00:11:05;;;;;;;8.17;4.73;;;;;;;;;;5065738;28;20246;-77
2023/01/28 00:13:31;;;;;;;8.70;5.00;;;;;;;;;;5071383;28;20186;-77
2023/01/28 00:16:00;;;;;;;5.00;3.87;;;;;;;;;;5064013;28;20227;-77
2023/01/28 00:18:26;;;;;;;7.70;5.73;;;;;;;;;;5069952;28;20293;-77
2023/01/28 00:20:57;;;;;;;6.37;4.20;;;;;;;;;;5063367;28;20220;-77
2023/01/28 00:23:23;;;;;;;6.63;4.80;;;;;;;;;;5069612;28;20208;-77
2023/01/28 00:25:48;;;;;;;3.77;2.63;;;;;;;;;;5065012;28;20212;-78
2023/01/28 00:28:13;;;;;;;7.20;5.00;;;;;;;;;;5065759;28;20216;-77
2023/01/28 00:30:38;;;;;;;6.40;5.13;;;;;;;;;;5067883;28;20311;-78
2023/01/28 00:33:03;;;;;;;7.80;5.10;;;;;;;;;;5065542;28;20193;-77
2023/01/28 00:35:28;;;;;;;6.23;5.33;;;;;;;;;;5068540;28;20182;-78
2023/01/28 00:37:54;;;;;;;6.20;4.67;;;;;;;;;;5067711;28;20216;-77
2023/01/28 00:40:19;;;;;;;1.53;1.43;;;;;;;;;;5067094;28;20181;-77
2023/01/28 00:42:44;;;;;;;5.57;4.30;;;;;;;;;;5064723;28;20230;-77
2023/01/28 00:45:09;;;;;;;7.53;5.37;;;;;;;;;;5069794;28;20175;-77
2023/01/28 00:47:35;;;;;;;3.90;3.03;;;;;;;;;;5062197;28;20181;-77
2023/01/28 00:50:00;;;;;;;5.93;4.90;;;;;;;;;;5069988;28;20186;-78
2023/01/28 00:52:26;;;;;;;7.63;5.30;;;;;;;;;;5063803;28;20188;-78
2023/01/28 00:54:51;;;;;;;6.10;4.60;;;;;;;;;;5067805;28;20187;-77
2023/01/28 00:57:16;;;;;;;9.37;5.53;;;;;;;;;;5062616;28;20200;-78
2023/01/28 00:59:42;;;;;;;7.43;5.50;;;;;;;;;;5064634;28;20189;-77
2023/01/28 01:02:13;;;;;;;2.93;2.57;;;;;;;;;;5068464;28;20173;-77
2023/01/28 01:04:39;;;;;;;6.93;4.43;;;;;;;;;;5064879;28;20178;-77
2023/01/28 01:07:05;;;;;;;8.00;5.27;;;;;;;;;;5060833;28;20206;-77
2023/01/28 01:09:30;;;;;;;6.17;4.90;;;;;;;;;;5067382;28;20214;-77
2023/01/28 01:11:55;;;;;;;6.43;5.00;;;;;;;;;;5063926;28;20226;-77
2023/01/28 01:14:21;;;;;;;9.30;5.20;;;;;;;;;;5066350;28;20196;-76
2023/01/28 01:16:46;;;;;;;7.40;4.63;;;;;;;;;;5063410;28;20171;-77
2023/01/28 01:19:11;;;;;;;6.70;4.60;;;;;;;;;;5067856;28;20232;-77
2023/01/28 01:21:36;;;;;;;6.47;4.30;;;;;;;;;;5067218;28;20182;-77
2023/01/28 01:24:02;;;;;;;7.93;4.93;;;;;;;;;;5068631;28;20189;-78
2023/01/28 01:26:27;;;;;;;8.57;5.00;;;;;;;;;;5067696;28;20185;-77
2023/01/28 01:28:52;;;;;;;7.87;5.03;;;;;;;;;;5062290;28;20384;-77
2023/01/28 01:31:19;;;;;;;5.50;4.77;;;;;;;;;;5064418;28;20183;-77
2023/01/28 01:33:45;;;;;;;6.50;5.10;;;;;;;;;;5055994;28;20179;-77
2023/01/28 01:36:12;;;;;;;5.80;4.97;;;;;;;;;;5067695;28;20248;-78
2023/01/28 01:38:37;;;;;;;7.80;4.83;;;;;;;;;;5058035;28;20198;-77
2023/01/28 01:41:03;;;;;;;5.90;4.50;;;;;;;;;;5067044;28;20179;-77
2023/01/28 01:43:49;;;;;;;8.07;5.03;;;;;;;;;;5064666;28;20174;-78
2023/01/28 01:46:18;;;;;;;5.40;3.97;;;;;;;;;;5080110;28;20303;-77
2023/01/28 01:48:43;;;;;;;6.13;4.67;;;;;;;;;;5060187;28;20182;-77
2023/01/28 01:51:14;;;;;;;6.10;4.53;;;;;;;;;;5080385;28;20189;-77
2023/01/28 01:53:41;;;;;;;5.97;4.17;;;;;;;;;;5079525;28;21216;-77
2023/01/28 01:56:08;;;;;;;7.27;4.77;;;;;;;;;;5069332;28;20189;-78
2023/01/28 01:58:35;;;;;;;6.10;4.77;;;;;;;;;;5061267;28;20193;-77
2023/01/28 02:01:01;;;;;;;5.30;3.37;;;;;;;;;;5066082;28;20269;-78
2023/01/28 02:03:45;;;;;;;5.20;3.80;;;;;;;;;;5060125;28;20269;-77
2023/01/28 02:06:11;;;;;;;6.70;4.10;;;;;;;;;;5057592;28;20233;-78
2023/01/28 02:08:36;;;;;;;6.13;3.40;;;;;;;;;;5068303;28;20182;-77
2023/01/28 02:11:03;;;;;;;5.87;3.57;;;;;;;;;;5066192;28;20230;-77
2023/01/28 02:13:31;;;;;;;5.50;3.80;;;;;;;;;;5062056;28;20178;-77
2023/01/28 02:15:57;;;;;;;4.43;2.93;;;;;;;;;;5062227;28;20650;-77
2023/01/28 02:18:22;;;;;;;7.27;4.07;;;;;;;;;;5069338;28;20213;-79
2023/01/28 02:21:06;;;;;;;4.67;4.20;;;;;;;;;;5065896;28;20171;-76
2023/01/28 02:23:32;;;;;;;7.37;4.20;;;;;;;;;;5057501;28;20177;-78
2023/01/28 02:26:16;;;;;;;5.07;4.07;;;;;;;;;;5065695;28;20180;-78
2023/01/28 02:28:47;;;;;;;4.97;3.43;;;;;;;;;;5062703;28;20193;-78
2023/01/28 02:31:16;;;;;;;5.10;3.40;;;;;;;;;;5061553;28;20201;-78
2023/01/28 02:33:47;;;;;;;6.40;3.80;;;;;;;;;;5065547;28;20191;-78
2023/01/28 02:36:23;;;;;;;6.37;3.77;;;;;;;;;;5072236;28;20592;-77
2023/01/28 02:38:49;;;;;;;4.40;3.13;;;;;;;;;;5067948;28;20219;-77
2023/01/28 02:41:22;;;;;;;5.47;4.10;;;;;;;;;;5068350;28;20182;-77
2023/01/28 02:43:47;;;;;;;6.77;4.17;;;;;;;;;;5061331;28;20241;-78
2023/01/28 02:49:11;;;;;;;7.67;4.53;;;;;;;;;;5058122;28;20513;-77
2023/01/28 02:51:37;;;;;;;5.57;4.10;;;;;;;;;;5065877;28;20209;-77
2023/01/28 02:54:14;;;;;;;7.67;4.73;;;;;;;;;;5062472;28;20214;-77
2023/01/28 02:56:42;;;;;;;6.47;4.70;;;;;;;;;;5065813;28;20184;-77
2023/01/28 03:01:57;;;;;;;5.20;3.70;;;;;;;;;;5063172;28;20193;-78
2023/01/28 03:04:25;;;;;;;5.33;3.80;;;;;;;;;;5060044;28;20173;-78
2023/01/28 03:06:54;;;;;;;5.80;3.83;;;;;;;;;;5072498;28;20201;-77
2023/01/28 03:09:25;;;;;;;4.63;3.27;;;;;;;;;;5067104;28;20202;-78
2023/01/28 03:37:18;;;;;;;5.37;3.57;;;;;;;;;;4988503;28;20255;-77
2023/01/28 03:39:43;;;;;;;7.53;4.27;;;;;;;;;;4983728;28;20194;-77
2023/01/28 03:42:10;;;;;;;1.83;1.73;;;;;;;;;;4969393;28;20197;-78
2023/01/28 03:44:51;;;;;;;7.30;5.00;;;;;;;;;;4970135;28;20182;-77
2023/01/28 03:47:20;;;;;;;9.57;5.07;;;;;;;;;;4972006;28;20194;-78
2023/01/28 03:49:49;;;;;;;5.67;3.90;;;;;;;;;;4979791;28;20199;-78
2023/01/28 03:52:16;;;;;;;6.90;4.43;;;;;;;;;;4990730;28;20239;-77
2023/01/28 03:54:41;;;;;;;4.60;2.97;;;;;;;;;;5034839;28;20186;-77
2023/01/28 03:57:07;;;;;;;6.13;4.23;;;;;;;;;;5061396;28;20228;-77
2023/01/28 03:59:32;;;;;;;5.43;3.87;;;;;;;;;;5067894;28;20188;-78
2023/01/28 04:01:57;;;;;;;6.17;4.00;;;;;;;;;;5062942;28;20215;-79
2023/01/28 04:04:23;;;;;;;9.20;2.80;;;;;;;;;;5061902;28;20174;-77
2023/01/28 04:06:52;;;;;;;6.90;4.33;;;;;;;;;;5070697;28;20186;-78
2023/01/28 04:09:18;;;;;;;3.10;1.87;;;;;;;;;;5068941;28;20177;-77
2023/01/28 04:11:43;;;;;;;5.77;3.40;;;;;;;;;;5060010;28;20230;-77
2023/01/28 04:14:08;;;;;;;2.27;2.07;;;;;;;;;;5068329;28;20239;-77
2023/01/28 04:16:33;;;;;;;4.57;2.60;;;;;;;;;;5065658;28;20233;-78
2023/01/28 04:18:59;;;;;;;8.23;5.63;;;;;;;;;;5063021;28;20215;-77
2023/01/28 04:21:24;;;;;;;4.70;3.57;;;;;;;;;;5068076;28;20174;-77
2023/01/28 04:23:49;;;;;;;6.63;4.97;;;;;;;;;;5065913;28;20179;-77
2023/01/28 04:26:14;;;;;;;6.37;5.07;;;;;;;;;;5065113;28;20188;-77
2023/01/28 04:28:40;;;;;;;3.57;2.53;;;;;;;;;;5064487;28;20192;-77
2023/01/28 04:31:05;;;;;;;5.10;2.93;;;;;;;;;;5065342;28;20266;-77
2023/01/28 04:33:30;;;;;;;7.17;5.03;;;;;;;;;;5067748;28;20194;-78
2023/01/28 04:35:55;;;;;;;6.63;4.67;;;;;;;;;;5067126;28;20206;-77
2023/01/28 04:38:21;;;;;;;6.57;4.80;;;;;;;;;;5068400;28;20202;-77
2023/01/28 04:40:49;;;;;;;6.93;4.90;;;;;;;;;;5067395;28;20178;-77
2023/01/28 04:43:15;;;;;;;7.07;4.67;;;;;;;;;;5068657;28;20179;-77
2023/01/28 04:45:40;;;;;;;6.80;4.47;;;;;;;;;;5068517;28;20270;-78
2023/01/28 04:48:05;;;;;;;7.33;5.07;;;;;;;;;;5064746;28;20190;-77
2023/01/28 04:50:30;;;;;;;7.57;5.73;;;;;;;;;;5063254;28;20179;-77
2023/01/28 04:52:55;;;;;;;9.10;5.97;;;;;;;;;;5069896;28;20197;-77
2023/01/28 04:55:21;;;;;;;7.13;5.20;;;;;;;;;;5070375;28;20185;-77
2023/01/28 04:57:47;;;;;;;12.83;6.27;;;;;;;;;;5070220;28;20199;-77
2023/01/28 05:00:12;;;;;;;5.40;3.47;;;;;;;;;;5069283;28;20209;-78
2023/01/28 05:02:38;;;;;;;6.67;4.33;;;;;;;;;;5064573;28;20183;-77
2023/01/28 05:05:05;;;;;;;4.97;3.73;;;;;;;;;;5065870;28;20175;-77
2023/01/28 05:07:30;;;;;;;6.60;3.67;;;;;;;;;;5070660;28;20179;-78
2023/01/28 05:09:55;;;;;;;8.37;5.03;;;;;;;;;;5067638;28;20197;-78
2023/01/28 05:12:20;;;;;;;5.77;4.73;;;;;;;;;;5060481;28;20236;-77
2023/01/28 05:14:45;;;;;;;4.00;3.43;;;;;;;;;;5062995;28;20242;-78
2023/01/28 05:17:10;;;;;;;6.87;5.37;;;;;;;;;;5063704;28;20183;-77
2023/01/28 05:19:36;;;;;;;7.80;5.33;;;;;;;;;;5064828;28;20179;-77
2023/01/28 05:22:01;;;;;;;4.67;3.83;;;;;;;;;;5067591;28;20177;-78
2023/01/28 05:24:26;;;;;;;3.47;2.83;;;;;;;;;;5067266;28;20210;-77
2023/01/28 05:26:51;;;;;;;5.47;4.10;;;;;;;;;;5062273;28;20189;-77
2023/01/28 05:29:16;;;;;;;6.80;5.10;;;;;;;;;;5062994;28;20185;-77
2023/01/28 05:31:42;;;;;;;8.03;5.70;;;;;;;;;;5063606;28;20184;-77
2023/01/28 05:34:07;;;;;;;8.43;5.13;;;;;;;;;;5063707;28;20212;-77
2023/01/28 05:36:32;;;;;;;8.13;5.30;;;;;;;;;;5070254;28;20182;-77
2023/01/28 05:38:57;;;;;;;4.47;3.70;;;;;;;;;;5064594;28;20503;-77
2023/01/28 05:41:23;;;;;;;6.70;4.97;;;;;;;;;;5059499;28;20448;-77
2023/01/28 05:43:48;;;;;;;15.67;6.67;;;;;;;;;;5065808;28;20177;-77
2023/01/28 05:46:13;;;;;;;5.53;4.37;;;;;;;;;;5065517;28;20182;-77
2023/01/28 05:48:38;;;;;;;8.40;5.80;;;;;;;;;;5067893;28;20201;-77
2023/01/28 05:51:04;;;;;;;8.30;5.70;;;;;;;;;;5062449;28;20181;-78
2023/01/28 05:53:29;;;;;;;9.03;5.97;;;;;;;;;;5067011;28;20269;-77
2023/01/28 05:55:54;;;;;;;9.57;5.90;;;;;;;;;;5061398;28;20242;-77
2023/01/28 05:58:20;;;;;;;5.53;4.13;;;;;;;;;;5068179;28;20199;-78
2023/01/28 06:00:45;;;;;;;7.10;4.90;;;;;;;;;;5066323;28;20190;-77
2023/01/28 06:03:11;;;;;;;5.60;3.90;;;;;;;;;;5067282;28;20189;-78
2023/01/28 06:05:36;;;;;;;6.20;4.30;;;;;;;;;;5062612;28;20309;-77
2023/01/28 06:08:01;;;;;;;3.60;2.77;;;;;;;;;;5071052;28;20190;-77
2023/01/28 06:10:26;;;;;;;8.10;4.90;;;;;;;;;;5075743;28;20193;-77
2023/01/28 06:12:52;;;;;;;7.10;4.47;;;;;;;;;;5066273;28;20239;-77
2023/01/28 06:15:17;;;;;;;3.57;2.57;;;;;;;;;;5066171;28;20235;-77
2023/01/28 06:17:42;;;;;;;2.97;2.73;;;;;;;;;;5075613;28;20210;-78
2023/01/28 06:20:08;;;;;;;8.63;6.37;;;;;;;;;;5073427;28;20183;-78
2023/01/28 06:22:33;;;;;;;9.63;5.77;;;;;;;;;;5071347;28;20180;-78
2023/01/28 06:24:58;;;;;;;7.23;4.50;;;;;;;;;;5073269;28;20173;-77
2023/01/28 06:27:23;;;;;;;7.33;4.70;;;;;;;;;;5072885;28;20213;-77
2023/01/28 06:29:49;;;;;;;4.23;3.77;;;;;;;;;;5067883;28;20178;-78
2023/01/28 06:32:14;;;;;;;5.30;4.43;;;;;;;;;;5069355;28;20182;-77
2023/01/28 06:34:39;;;;;;;8.93;5.87;;;;;;;;;;5075106;28;20257;-78
2023/01/28 06:37:05;;;;;;;6.53;4.40;;;;;;;;;;5068982;28;20217;-78
2023/01/28 06:39:33;;;;;;;6.77;4.30;;;;;;;;;;5073915;28;20182;-77
2023/01/28 06:41:59;;;;;;;9.80;7.03;;;;;;;;;;5071700;28;20174;-77
2023/01/28 06:44:24;;;;;;;9.73;6.97;;;;;;;;;;5069581;28;20174;-78
2023/01/28 06:46:49;;;;;;;7.53;5.63;;;;;;;;;;5073630;28;20261;-78
2023/01/28 06:49:14;;;;;;;10.63;7.57;;;;;;;;;;5068805;28;20193;-77
2023/01/28 06:51:39;;;;;;;12.97;8.10;;;;;;;;;;5066036;28;20175;-78
2023/01/28 06:54:05;;;;;;;9.67;6.73;;;;;;;;;;5066582;28;20179;-77
2023/01/28 06:56:30;;;;;;;13.17;6.47;;;;;;;;;;5066716;28;20170;-77
2023/01/28 06:58:55;;;;;;;8.73;5.47;;;;;;;;;;5070850;28;20234;-78
2023/01/28 07:01:20;;;;;;;8.80;6.47;;;;;;;;;;5073071;28;20201;-77
2023/01/28 07:03:45;;;;;;;8.43;6.20;;;;;;;;;;5075087;28;20276;-77
2023/01/28 07:06:11;;;;;;;8.50;5.80;;;;;;;;;;5067640;28;20182;-77
2023/01/28 07:08:36;;;;;;;10.07;6.73;;;;;;;;;;5070568;28;20206;-78
2023/01/28 07:11:03;;;;;;;9.43;6.60;;;;;;;;;;5068200;28;20207;-77
2023/01/28 07:13:28;;;;;;;8.53;6.00;;;;;;;;;;5067767;28;20189;-78
2023/01/28 07:15:53;;;;;;;7.37;5.83;;;;;;;;;;5066667;28;20173;-77
2023/01/28 07:18:20;;;;;;;8.97;5.87;;;;;;;;;;5065541;28;20257;-77
2023/01/28 07:20:45;;;;;;;9.17;6.67;;;;;;;;;;5072157;28;20178;-77
2023/01/28 07:23:11;;;;;;;8.47;5.37;;;;;;;;;;5061897;28;20173;-77
2023/01/28 07:25:36;;;;;;;8.77;6.03;;;;;;;;;;5070534;28;20171;-77
2023/01/28 07:28:01;;;;;;;13.33;7.10;;;;;;;;;;5069548;28;20179;-77
2023/01/28 07:30:27;;;;;;;11.03;7.37;;;;;;;;;;5063728;28;20267;-77
2023/01/28 07:32:53;;;;;;;11.27;7.00;;;;;;;;;;5065610;28;20217;-77
2023/01/28 07:35:19;;;;;;;10.33;6.87;;;;;;;;;;5067839;28;20185;-77
2023/01/28 07:37:49;;;;;;;12.40;7.60;;;;;;;;;;5063735;28;20261;-77
2023/01/28 07:40:15;;;;;;;12.07;7.57;;;;;;;;;;5057596;28;20170;-78
2023/01/28 07:42:41;;;;;;;10.37;7.13;;;;;;;;;;5067682;28;20206;-77
2023/01/28 07:45:06;;;;;;;8.10;5.33;;;;;;;;;;5069492;28;20516;-78
2023/01/28 07:47:32;;;;;;;8.03;5.37;;;;;;;;;;5058017;28;20263;-77
2023/01/28 07:49:57;;;;;;;5.77;4.70;;;;;;;;;;5063334;28;20212;-77
2023/01/28 07:52:22;;;;;;;11.10;6.13;;;;;;;;;;5068763;28;20212;-78
2023/01/28 07:54:48;;;;;;;11.60;6.43;;;;;;;;;;5065634;28;20195;-77
2023/01/28 07:57:13;;;;;;;6.13;4.50;;;;;;;;;;5058508;28;20183;-77
2023/01/28 07:59:38;;;;;;;14.57;8.47;;;;;;;;;;5065346;28;20187;-78
2023/01/28 08:02:03;;;;;;;8.73;6.03;;;;;;;;;;5069087;28;20206;-77
2023/01/28 08:04:28;;;;;;;12.63;8.30;;;;;;;;;;5065760;28;20170;-77
2023/01/28 08:06:54;;;;;;;10.93;7.03;;;;;;;;;;5068628;28;20184;-79
2023/01/28 08:09:19;;;;;;;12.40;8.70;;;;;;;;;;5064682;28;20205;-77
2023/01/28 08:11:44;;;;;;;10.23;7.40;;;;;;;;;;5065285;28;20234;-77
2023/01/28 08:14:10;;;;;;;12.20;8.73;;;;;;;;;;5060119;28;20190;-78
2023/01/28 08:16:35;;;;;;;8.40;5.93;;;;;;;;;;5065296;28;20182;-79
2023/01/28 08:19:00;;;;;;;10.33;7.77;;;;;;;;;;5070094;28;20305;-77
2023/01/28 08:21:25;;;;;;;5.43;2.50;;;;;;;;;;5070622;28;20230;-77
2023/01/28 08:23:50;;;;;;;12.00;7.93;;;;;;;;;;5067372;28;20179;-77
2023/01/28 08:26:16;;;;;;;11.53;7.40;;;;;;;;;;5066247;28;20170;-77
2023/01/28 08:28:41;;;;;;;12.13;7.37;;;;;;;;;;5070346;28;20188;-78
2023/01/28 08:31:06;;;;;;;10.27;7.10;;;;;;;;;;5068227;28;20262;-77
2023/01/28 08:33:31;;;;;;;6.63;4.20;;;;;;;;;;5064759;28;20215;-77
2023/01/28 08:35:56;;;;;;;8.00;5.37;;;;;;;;;;5071764;28;20211;-78
2023/01/28 08:38:22;;;;;;;11.87;7.80;;;;;;;;;;5063377;28;20249;-78
2023/01/28 08:40:49;;;;;;;9.17;6.73;;;;;;;;;;5065041;28;20214;-77
2023/01/28 08:43:14;;;;;;;6.23;5.00;;;;;;;;;;5070935;28;20173;-78
2023/01/28 08:45:40;;;;;;;12.03;8.20;;;;;;;;;;5066410;28;20186;-77
2023/01/28 08:48:06;;;;;;;14.07;8.90;;;;;;;;;;5059292;28;20270;-77
2023/01/28 08:50:33;;;;;;;12.30;8.23;;;;;;;;;;5064062;28;20240;-77
2023/01/28 08:52:59;;;;;;;4.80;2.53;;;;;;;;;;5068214;28;20185;-77
2023/01/28 08:55:25;;;;;;;9.90;8.03;;;;;;;;;;5068668;28;20191;-77
2023/01/28 08:57:51;;;;;;;12.43;7.90;;;;;;;;;;5068564;28;20264;-78
2023/01/28 09:00:16;;;;;;;10.60;7.80;;;;;;;;;;5060208;28;20172;-78
2023/01/28 09:02:41;;;;;;;13.47;8.90;;;;;;;;;;5057933;28;20176;-78
2023/01/28 09:05:07;;;;;;;13.17;8.50;;;;;;;;;;5065596;28;20178;-78
2023/01/28 09:07:36;;;;;;;15.10;10.13;;;;;;;;;;5062812;28;20182;-78
2023/01/28 09:10:02;;;;;;;14.27;8.70;;;;;;;;;;5065856;28;20217;-77
2023/01/28 09:12:27;;;;;;;11.03;8.23;;;;;;;;;;5083189;28;20222;-77
2023/01/28 09:14:53;;;;;;;11.07;7.93;;;;;;;;;;5059030;28;20188;-78
2023/01/28 09:17:20;;;;;;;12.00;7.43;;;;;;;;;;5069007;28;20242;-78
2023/01/28 09:19:45;;;;;;;5.23;4.03;;;;;;;;;;5063339;28;20172;-77
2023/01/28 09:22:10;;;;;;;12.33;8.70;;;;;;;;;;5063390;28;20263;-77
2023/01/28 09:24:35;;;;;;;16.90;10.87;;;;;;;;;;5066476;28;20203;-77
2023/01/28 09:27:00;;;;;;;14.10;9.97;;;;;;;;;;5066469;28;20213;-77
2023/01/28 09:29:26;;;;;;;8.03;5.70;;;;;;;;;;5058324;28;20172;-78
2023/01/28 09:31:51;;;;;;;12.37;7.93;;;;;;;;;;5056729;28;20179;-77
2023/01/28 09:34:16;;;;;;;9.10;5.67;;;;;;;;;;5062492;28;20258;-77
2023/01/28 09:36:41;;;;;;;15.20;9.40;;;;;;;;;;5062255;28;20179;-78
2023/01/28 09:39:07;;;;;;;5.20;3.50;;;;;;;;;;5063604;28;20211;-77
2023/01/28 09:41:48;;;;;;;13.00;8.40;;;;;;;;;;5062257;28;20202;-77
2023/01/28 09:44:32;;;;;;;11.97;7.10;;;;;;;;;;5063944;28;20183;-78
2023/01/28 09:47:07;;;;;;;11.93;7.43;;;;;;;;;;5062895;28;20310;-77
2023/01/28 09:49:32;;;;;;;10.07;7.27;;;;;;;;;;5067290;28;20181;-77
2023/01/28 09:51:57;;;;;;;12.20;7.60;;;;;;;;;;5068728;28;20285;-77
2023/01/28 09:54:26;;;;;;;9.77;6.37;;;;;;;;;;5056513;28;20210;-78
2023/01/28 09:56:54;;;;;;;8.40;5.80;;;;;;;;;;5067477;28;20189;-77
2023/01/28 09:59:22;;;;;;;16.33;9.80;;;;;;;;;;5062093;28;20199;-78
2023/01/28 10:01:51;;;;;;;10.60;6.87;;;;;;;;;;5068288;28;20172;-78
2023/01/28 10:04:31;;;;;;;11.70;8.00;;;;;;;;;;5061159;28;20176;-77
2023/01/28 10:07:15;;;;;;;15.60;11.10;;;;;;;;;;5066107;28;20203;-77
2023/01/28 10:09:49;;;;;;;8.27;5.17;;;;;;;;;;5061847;28;20281;-78
2023/01/28 10:12:17;;;;;;;6.63;4.30;;;;;;;;;;5064900;28;20237;-78
2023/01/28 10:14:57;;;;;;;11.63;7.73;;;;;;;;;;5069004;28;20182;-77
2023/01/28 10:17:27;;;;;;;15.87;10.33;;;;;;;;;;5062280;28;20171;-77
2023/01/28 10:19:57;;;;;;;7.30;5.07;;;;;;;;;;5062279;28;20210;-77
2023/01/28 10:22:25;;;;;;;14.87;8.93;;;;;;;;;;5061338;28;20175;-78
2023/01/28 10:24:57;;;;;;;14.73;10.30;;;;;;;;;;5067034;28;20171;-77
2023/01/28 10:27:23;;;;;;;13.50;9.03;;;;;;;;;;5062115;28;20182;-79
2023/01/28 10:29:49;;;;;;;18.13;10.10;;;;;;;;;;5058319;28;20183;-77
2023/01/28 10:32:29;;;;;;;10.63;7.87;;;;;;;;;;5058161;28;20174;-77
2023/01/28 10:34:54;;;;;;;10.97;7.23;;;;;;;;;;5065709;28;20183;-77
2023/01/28 10:37:20;;;;;;;10.87;7.10;;;;;;;;;;5065240;28;20174;-78
2023/01/28 10:39:45;;;;;;;12.43;7.80;;;;;;;;;;5061978;28;20184;-77
2023/01/28 10:42:29;;;;;;;14.80;9.53;;;;;;;;;;5058045;28;20179;-77
2023/01/28 10:45:13;;;;;;;12.63;7.80;;;;;;;;;;5062780;28;20177;-78
2023/01/28 10:47:41;;;;;;;10.87;6.20;;;;;;;;;;5053750;28;20213;-77
2023/01/28 10:50:13;;;;;;;15.87;10.47;;;;;;;;;;5066780;28;20201;-77
2023/01/28 10:52:39;;;;;;;9.10;5.10;;;;;;;;;;5070558;28;20278;-77
2023/01/28 10:55:05;;;;;;;14.83;8.23;;;;;;;;;;5067491;28;20492;-77
2023/01/28 10:57:32;;;;;;;12.67;7.57;;;;;;;;;;5059491;28;20175;-77
2023/01/28 11:00:08;;;;;;;9.77;5.77;;;;;;;;;;5069157;28;20206;-77
2023/01/28 11:02:35;;;;;;;12.50;9.27;;;;;;;;;;5084695;28;20202;-77
2023/01/28 11:05:01;;;;;;;11.13;6.63;;;;;;;;;;5069037;28;20190;-77
2023/01/28 11:07:26;;;;;;;13.23;6.67;;;;;;;;;;5070348;28;20177;-77
2023/01/28 11:09:51;;;;;;;13.30;8.87;;;;;;;;;;5065090;28;20226;-78
2023/01/28 11:12:21;;;;;;;13.30;8.80;;;;;;;;;;5058264;28;20223;-77
2023/01/28 11:14:55;;;;;;;15.13;9.17;;;;;;;;;;5066227;28;20179;-77
2023/01/28 11:17:23;;;;;;;12.00;6.30;;;;;;;;;;5058137;28;20241;-77
2023/01/28 11:19:48;;;;;;;11.90;6.63;;;;;;;;;;5071304;28;20258;-77
2023/01/28 11:22:37;;;;;;;14.93;9.77;;;;;;;;;;5069725;28;20316;-78
2023/01/28 11:25:04;;;;;;;20.50;10.27;;;;;;;;;;5057962;28;20190;-78
2023/01/28 11:27:30;;;;;;;15.77;9.90;;;;;;;;;;5072147;28;20275;-77
2023/01/28 11:30:02;;;;;;;16.00;8.60;;;;;;;;;;5070266;28;20229;-77
2023/01/28 11:32:28;;;;;;;14.57;9.63;;;;;;;;;;5068882;28;20183;-77
2023/01/28 11:34:56;;;;;;;14.87;9.23;;;;;;;;;;5068329;28;20183;-79
2023/01/28 11:37:21;;;;;;;16.17;10.57;;;;;;;;;;5059984;28;20187;-78
2023/01/28 11:39:47;;;;;;;17.80;9.23;;;;;;;;;;5071625;28;20181;-77
2023/01/28 11:42:12;;;;;;;18.17;11.40;;;;;;;;;;5063763;28;20268;-77
2023/01/28 11:44:38;;;;;;;14.93;9.93;;;;;;;;;;5072215;28;20179;-77
2023/01/28 11:47:19;;;;;;;18.90;10.73;;;;;;;;;;5069320;28;20189;-78
2023/01/28 11:49:47;;;;;;;14.33;9.70;;;;;;;;;;5068876;28;20255;-77
2023/01/28 11:52:27;;;;;;;14.53;9.50;;;;;;;;;;5070066;28;20173;-77
2023/01/28 11:54:52;;;;;;;13.53;8.53;;;;;;;;;;5083440;28;20173;-79
2023/01/28 11:57:36;;;;;;;15.23;9.87;;;;;;;;;;5065145;28;20190;-78
2023/01/28 12:00:16;;;;;;;15.03;10.27;;;;;;;;;;5067531;28;20178;-78
2023/01/28 12:02:44;;;;;;;16.00;9.33;;;;;;;;;;5082040;28;20264;-78
2023/01/28 12:05:20;;;;;;;6.60;4.17;;;;;;;;;;5063624;28;20191;-77
2023/01/28 12:07:46;;;;;;;11.87;6.47;;;;;;;;;;5070420;28;20178;-77
2023/01/28 12:10:11;;;;;;;8.77;6.43;;;;;;;;;;5063862;28;20202;-78
2023/01/28 12:13:11;;;;;;;12.07;7.57;;;;;;;;;;5061032;28;20287;-78
2023/01/28 12:16:03;;;;;;;12.10;7.80;;;;;;;;;;4971743;28;20183;-77
2023/01/28 12:18:28;;;;;;;18.13;11.03;;;;;;;;;;5062533;28;20213;-77
2023/01/28 12:21:09;;;;;;;16.57;10.13;;;;;;;;;;5068513;28;20232;-77
2023/01/28 12:23:35;;;;;;;8.67;5.73;;;;;;;;;;5060608;28;20176;-77
2023/01/28 12:26:19;;;;;;;14.33;8.10;;;;;;;;;;5064300;28;20179;-78
2023/01/28 12:29:11;;;;;;;15.17;7.63;;;;;;;;;;5063267;28;20196;-77
2023/01/28 12:31:48;;;;;;;11.40;7.03;;;;;;;;;;5048637;28;20199;-77
2023/01/28 12:34:39;;;;;;;10.50;6.30;;;;;;;;;;5071022;28;20187;-77
2023/01/28 12:37:11;;;;;;;13.93;7.83;;;;;;;;;;5066294;28;20184;-77
2023/01/28 12:39:51;;;;;;;11.50;6.37;;;;;;;;;;5057676;28;20249;-77
2023/01/28 12:42:22;;;;;;;14.63;8.67;;;;;;;;;;5060173;28;20180;-77
2023/01/28 12:44:53;;;;;;;5.20;3.97;;;;;;;;;;5061818;28;20182;-78
2023/01/28 12:47:21;;;;;;;6.17;3.87;;;;;;;;;;5065700;28;20168;-77
2023/01/28 12:49:52;;;;;;;10.43;6.30;;;;;;;;;;5087160;28;20179;-77
2023/01/28 12:52:21;;;;;;;7.77;5.13;;;;;;;;;;5068048;28;20202;-79
2023/01/28 12:54:53;;;;;;;10.07;5.43;;;;;;;;;;5059332;28;20274;-77
2023/01/28 12:57:22;;;;;;;12.03;7.37;;;;;;;;;;5068217;28;20191;-77
2023/01/28 12:59:49;;;;;;;9.53;6.50;;;;;;;;;;5066695;28;20270;-77
2023/01/28 13:02:28;;;;;;;10.43;6.03;;;;;;;;;;5066829;28;20182;-78
2023/01/28 13:05:19;;;;;;;11.60;6.83;;;;;;;;;;5061859;28;20179;-77
2023/01/28 13:07:54;;;;;;;5.57;3.70;;;;;;;;;;5058170;28;20275;-78
2023/01/28 13:10:27;;;;;;;8.67;5.70;;;;;;;;;;5065581;28;20284;-77
2023/01/28 13:12:52;;;;;;;10.03;6.67;;;;;;;;;;5065380;28;20219;-77
2023/01/28 13:15:18;;;;;;;9.87;6.30;;;;;;;;;;5068909;28;20188;-77
2023/01/28 13:17:57;;;;;;;6.93;4.00;;;;;;;;;;5067438;28;20304;-77
2023/01/28 13:20:35;;;;;;;8.87;6.50;;;;;;;;;;5066582;28;20174;-78
2023/01/28 13:23:03;;;;;;;8.83;6.40;;;;;;;;;;5066913;28;20179;-77
2023/01/28 13:25:28;;;;;;;9.77;6.13;;;;;;;;;;5057249;28;20171;-77
2023/01/28 13:27:55;;;;;;;12.67;8.50;;;;;;;;;;5065884;28;20257;-77
2023/01/28 13:30:22;;;;;;;10.10;6.67;;;;;;;;;;5064626;28;20473;-78
2023/01/28 13:32:54;;;;;;;8.47;5.73;;;;;;;;;;5068192;28;20180;-77
2023/01/28 13:35:30;;;;;;;7.30;4.73;;;;;;;;;;5063610;28;20191;-78
2023/01/28 13:37:56;;;;;;;10.37;7.17;;;;;;;;;;5061607;28;20198;-77
2023/01/28 13:40:22;;;;;;;6.77;5.10;;;;;;;;;;5059629;28;20182;-78
2023/01/28 13:42:56;;;;;;;4.37;3.83;;;;;;;;;;5066215;28;20182;-78
2023/01/28 13:45:22;;;;;;;7.40;5.10;;;;;;;;;;5066556;28;20175;-77
2023/01/28 13:47:51;;;;;;;7.03;4.87;;;;;;;;;;5061600;28;20245;-78
2023/01/28 13:50:21;;;;;;;6.50;5.07;;;;;;;;;;5059736;28;20180;-77
2023/01/28 13:53:16;;;;;;;5.43;4.20;;;;;;;;;;5065109;28;20202;-77
2023/01/28 13:55:43;;;;;;;7.43;5.47;;;;;;;;;;5039602;28;20194;-79
2023/01/28 13:58:23;;;;;;;6.70;5.40;;;;;;;;;;5066735;28;20228;-78
2023/01/28 14:01:07;;;;;;;9.37;5.43;;;;;;;;;;5062740;28;20180;-77
2023/01/28 14:03:51;;;;;;;2.17;2.03;;;;;;;;;;5074507;28;20199;-78
2023/01/28 14:06:39;;;;;;;7.70;4.60;;;;;;;;;;5062656;28;20230;-78
2023/01/28 14:09:14;;;;;;;6.53;4.10;;;;;;;;;;5065014;28;20214;-78
2023/01/28 14:11:58;;;;;;;6.90;3.70;;;;;;;;;;5065640;28;20230;-77
2023/01/28 14:14:23;;;;;;;5.10;3.40;;;;;;;;;;5063814;28;20184;-78
2023/01/28 14:17:02;;;;;;;7.83;5.70;;;;;;;;;;5064720;28;20183;-78
2023/01/28 14:19:30;;;;;;;6.83;4.43;;;;;;;;;;5068237;28;20207;-77
2023/01/28 14:21:55;;;;;;;13.47;6.60;;;;;;;;;;5066767;28;20217;-78
2023/01/28 14:24:21;;;;;;;20.43;5.97;;;;;;;;;;5064458;28;20196;-77
2023/01/28 14:26:54;;;;;;;7.13;4.20;;;;;;;;;;5069351;28;20209;-78
2023/01/28 14:29:24;;;;;;;18.97;7.60;;;;;;;;;;5065657;28;20190;-77
2023/01/28 14:31:51;;;;;;;12.50;8.00;;;;;;;;;;5068055;28;20188;-78
2023/01/28 14:34:25;;;;;;;14.53;7.20;;;;;;;;;;5070471;28;20237;-78
2023/01/28 14:36:52;;;;;;;7.80;5.83;;;;;;;;;;5067872;28;20186;-77
2023/01/28 14:39:23;;;;;;;10.00;6.37;;;;;;;;;;5068549;28;20190;-77
2023/01/28 14:41:50;;;;;;;8.17;6.17;;;;;;;;;;5068220;28;20258;-78
2023/01/28 14:44:30;;;;;;;10.37;6.13;;;;;;;;;;5073483;28;20202;-77
2023/01/28 14:47:14;;;;;;;12.10;7.00;;;;;;;;;;5073408;28;20178;-77
2023/01/28 14:49:54;;;;;;;11.17;7.07;;;;;;;;;;5071573;28;20183;-77
2023/01/28 14:52:28;;;;;;;12.00;7.47;;;;;;;;;;5070483;28;20178;-78
2023/01/28 14:54:53;;;;;;;11.10;7.50;;;;;;;;;;5071073;28;20175;-78
2023/01/28 14:57:31;;;;;;;8.30;5.40;;;;;;;;;;5070366;28;20180;-79
2023/01/28 15:00:06;;;;;;;11.10;6.93;;;;;;;;;;5066367;28;20181;-77
2023/01/28 15:02:32;;;;;;;12.07;6.70;;;;;;;;;;5064731;28;20182;-77
2023/01/28 15:05:13;;;;;;;10.53;7.93;;;;;;;;;;5062754;28;20274;-77
2023/01/28 15:07:42;;;;;;;9.07;6.40;;;;;;;;;;5072534;28;20210;-78
2023/01/28 15:10:19;;;;;;;9.57;6.37;;;;;;;;;;5071548;28;20230;-77
2023/01/28 15:12:47;;;;;;;11.27;7.63;;;;;;;;;;5049636;28;20219;-78
2023/01/28 15:15:23;;;;;;;11.73;8.23;;;;;;;;;;5065561;28;20183;-78
2023/01/28 15:17:48;;;;;;;11.37;7.10;;;;;;;;;;5063773;28;20222;-78